sensor_id;sensor_type;location;lat;lon;timestamp;pressure;altitude;pressure_sealevel;temperature;humidity
4346;BME280;2186;49.866;7.986;2022-07-23T00:01:04;100166.59;;;24.05;72.40
4346;BME280;2186;49.866;7.986;2022-07-23T00:03:30;100157.19;;;23.88;72.52
4346;BME280;2186;49.866;7.986;2022-07-23T00:05:57;100151.44;;;24.02;72.31
4346;BME280;2186;49.866;7.986;2022-07-23T00:08:23;100135.19;;;24.12;72.06
4346;BME280;2186;49.866;7.986;2022-07-23T00:10:50;100129.09;;;23.14;76.21
4346;BME280;2186;49.866;7.986;2022-07-23T00:13:16;100126.44;;;24.08;72.55
4346;BME280;2186;49.866;7.986;2022-07-23T00:15:43;100128.44;;;24.27;71.13
4346;BME280;2186;49.866;7.986;2022-07-23T00:18:09;100133.03;;;23.85;73.12
4346;BME280;2186;49.866;7.986;2022-07-23T00:20:36;100124.84;;;24.27;71.42
4346;BME280;2186;49.866;7.986;2022-07-23T00:23:02;100115.22;;;23.71;73.12
4346;BME280;2186;49.866;7.986;2022-07-23T00:25:29;100134.13;;;23.82;72.97
4346;BME280;2186;49.866;7.986;2022-07-23T00:27:58;100142.81;;;23.97;73.00
4346;BME280;2186;49.866;7.986;2022-07-23T00:30:25;100150.91;;;23.87;72.86
4346;BME280;2186;49.866;7.986;2022-07-23T00:32:55;100164.25;;;23.58;74.11
4346;BME280;2186;49.866;7.986;2022-07-23T00:35:25;100172.16;;;23.50;74.62
4346;BME280;2186;49.866;7.986;2022-07-23T00:37:52;100164.59;;;23.54;73.89
4346;BME280;2186;49.866;7.986;2022-07-23T00:40:19;100169.97;;;23.97;72.69
4346;BME280;2186;49.866;7.986;2022-07-23T00:42:45;100179.56;;;23.80;72.48
4346;BME280;2186;49.866;7.986;2022-07-23T00:45:12;100193.97;;;23.60;73.20
4346;BME280;2186;49.866;7.986;2022-07-23T00:47:39;100211.13;;;23.60;77.19
4346;BME280;2186;49.866;7.986;2022-07-23T00:50:07;100212.25;;;23.58;76.19
4346;BME280;2186;49.866;7.986;2022-07-23T00:52:35;100201.75;;;23.42;80.32
4346;BME280;2186;49.866;7.986;2022-07-23T00:55:07;100190.56;;;23.35;81.57
4346;BME280;2186;49.866;7.986;2022-07-23T00:57:36;100176.47;;;23.42;83.91
4346;BME280;2186;49.866;7.986;2022-07-23T01:00:05;100156.00;;;23.49;84.56
4346;BME280;2186;49.866;7.986;2022-07-23T01:02:32;100148.84;;;23.80;81.98
4346;BME280;2186;49.866;7.986;2022-07-23T01:04:58;100125.00;;;23.83;81.29
4346;BME280;2186;49.866;7.986;2022-07-23T01:07:25;100123.53;;;23.79;81.34
4346;BME280;2186;49.866;7.986;2022-07-23T01:09:52;100113.59;;;23.69;81.23
4346;BME280;2186;49.866;7.986;2022-07-23T01:12:18;100114.59;;;23.35;83.13
4346;BME280;2186;49.866;7.986;2022-07-23T01:14:45;100122.63;;;23.05;84.56
4346;BME280;2186;49.866;7.986;2022-07-23T01:17:11;100129.66;;;22.74;88.82
4346;BME280;2186;49.866;7.986;2022-07-23T01:19:38;100140.16;;;22.90;89.11
4346;BME280;2186;49.866;7.986;2022-07-23T01:22:04;100145.28;;;22.82;90.42
4346;BME280;2186;49.866;7.986;2022-07-23T01:24:31;100157.78;;;22.62;89.95
4346;BME280;2186;49.866;7.986;2022-07-23T01:26:58;100160.47;;;22.51;93.70
4346;BME280;2186;49.866;7.986;2022-07-23T01:29:24;100149.50;;;22.52;93.44
4346;BME280;2186;49.866;7.986;2022-07-23T01:31:51;100146.91;;;22.39;95.39
4346;BME280;2186;49.866;7.986;2022-07-23T01:34:17;100142.47;;;22.27;95.63
4346;BME280;2186;49.866;7.986;2022-07-23T01:36:44;100140.13;;;22.34;95.07
4346;BME280;2186;49.866;7.986;2022-07-23T01:39:11;100131.41;;;22.41;93.73
4346;BME280;2186;49.866;7.986;2022-07-23T01:41:37;100143.34;;;22.39;95.01
4346;BME280;2186;49.866;7.986;2022-07-23T01:44:05;100153.31;;;22.27;95.29
4346;BME280;2186;49.866;7.986;2022-07-23T01:46:31;100171.91;;;22.21;95.44
4346;BME280;2186;49.866;7.986;2022-07-23T01:48:58;100181.91;;;22.54;93.35
4346;BME280;2186;49.866;7.986;2022-07-23T01:51:25;100177.72;;;22.83;91.28
4346;BME280;2186;49.866;7.986;2022-07-23T01:53:51;100175.72;;;22.74;90.89
4346;BME280;2186;49.866;7.986;2022-07-23T01:56:18;100161.94;;;22.55;93.27
4346;BME280;2186;49.866;7.986;2022-07-23T01:58:48;100139.78;;;22.38;92.40
4346;BME280;2186;49.866;7.986;2022-07-23T02:01:14;100120.69;;;22.29;94.49
4346;BME280;2186;49.866;7.986;2022-07-23T02:03:41;100113.19;;;22.10;94.58
4346;BME280;2186;49.866;7.986;2022-07-23T02:06:07;100139.66;;;22.51;92.32
4346;BME280;2186;49.866;7.986;2022-07-23T02:08:34;100156.66;;;22.64;92.37
4346;BME280;2186;49.866;7.986;2022-07-23T02:11:00;100159.00;;;22.35;92.92
4346;BME280;2186;49.866;7.986;2022-07-23T02:13:27;100171.44;;;22.38;93.41
4346;BME280;2186;49.866;7.986;2022-07-23T02:15:59;100159.34;;;22.08;95.80
4346;BME280;2186;49.866;7.986;2022-07-23T02:18:26;100156.88;;;22.16;95.44
4346;BME280;2186;49.866;7.986;2022-07-23T02:20:53;100163.56;;;22.35;94.82
4346;BME280;2186;49.866;7.986;2022-07-23T02:23:19;100167.34;;;22.43;91.33
4346;BME280;2186;49.866;7.986;2022-07-23T02:25:45;100165.38;;;22.45;90.81
4346;BME280;2186;49.866;7.986;2022-07-23T02:28:12;100156.66;;;22.42;91.31
4346;BME280;2186;49.866;7.986;2022-07-23T02:30:38;100141.13;;;22.33;91.40
4346;BME280;2186;49.866;7.986;2022-07-23T02:33:06;100136.47;;;22.24;90.42
4346;BME280;2186;49.866;7.986;2022-07-23T02:35:32;100124.25;;;22.18;91.45
4346;BME280;2186;49.866;7.986;2022-07-23T02:37:59;100128.88;;;22.05;91.32
4346;BME280;2186;49.866;7.986;2022-07-23T02:40:25;100125.31;;;22.04;91.90
4346;BME280;2186;49.866;7.986;2022-07-23T02:42:52;100128.13;;;22.03;92.71
4346;BME280;2186;49.866;7.986;2022-07-23T02:45:18;100125.22;;;22.17;91.49
4346;BME280;2186;49.866;7.986;2022-07-23T02:47:44;100123.16;;;22.09;91.20
4346;BME280;2186;49.866;7.986;2022-07-23T02:50:11;100121.50;;;21.96;92.64
4346;BME280;2186;49.866;7.986;2022-07-23T02:52:38;100127.78;;;21.96;91.65
4346;BME280;2186;49.866;7.986;2022-07-23T02:55:06;100126.59;;;22.11;91.02
4346;BME280;2186;49.866;7.986;2022-07-23T02:57:33;100125.75;;;22.22;90.77
4346;BME280;2186;49.866;7.986;2022-07-23T02:59:59;100124.78;;;21.88;92.17
4346;BME280;2186;49.866;7.986;2022-07-23T03:02:26;100128.00;;;21.82;92.12
4346;BME280;2186;49.866;7.986;2022-07-23T03:04:52;100144.56;;;21.77;92.78
4346;BME280;2186;49.866;7.986;2022-07-23T03:07:19;100150.78;;;21.55;93.79
4346;BME280;2186;49.866;7.986;2022-07-23T03:09:46;100179.78;;;21.53;94.16
4346;BME280;2186;49.866;7.986;2022-07-23T03:12:13;100194.56;;;21.61;93.85
4346;BME280;2186;49.866;7.986;2022-07-23T03:14:40;100210.34;;;21.43;94.73
4346;BME280;2186;49.866;7.986;2022-07-23T03:17:08;100196.47;;;21.47;94.44
4346;BME280;2186;49.866;7.986;2022-07-23T03:19:34;100186.13;;;21.76;93.12
4346;BME280;2186;49.866;7.986;2022-07-23T03:22:01;100168.97;;;21.88;91.88
4346;BME280;2186;49.866;7.986;2022-07-23T03:24:27;100165.34;;;21.77;91.75
4346;BME280;2186;49.866;7.986;2022-07-23T03:27:13;100162.09;;;21.61;92.26
4346;BME280;2186;49.866;7.986;2022-07-23T03:29:40;100159.69;;;21.69;91.70
4346;BME280;2186;49.866;7.986;2022-07-23T03:32:07;100169.53;;;21.46;91.99
4346;BME280;2186;49.866;7.986;2022-07-23T03:34:33;100165.34;;;21.42;92.49
4346;BME280;2186;49.866;7.986;2022-07-23T03:37:00;100168.75;;;21.33;93.54
4346;BME280;2186;49.866;7.986;2022-07-23T03:39:28;100168.97;;;21.53;92.30
4346;BME280;2186;49.866;7.986;2022-07-23T03:41:54;100183.25;;;21.55;92.40
4346;BME280;2186;49.866;7.986;2022-07-23T03:44:21;100171.81;;;21.63;91.72
4346;BME280;2186;49.866;7.986;2022-07-23T03:46:47;100177.16;;;21.41;92.17
4346;BME280;2186;49.866;7.986;2022-07-23T03:49:14;100186.38;;;21.73;91.35
4346;BME280;2186;49.866;7.986;2022-07-23T03:51:41;100183.59;;;21.27;93.13
4346;BME280;2186;49.866;7.986;2022-07-23T03:54:07;100194.00;;;21.68;91.54
4346;BME280;2186;49.866;7.986;2022-07-23T03:56:34;100202.63;;;21.73;91.05
4346;BME280;2186;49.866;7.986;2022-07-23T03:59:00;100216.84;;;21.40;91.96
4346;BME280;2186;49.866;7.986;2022-07-23T04:01:28;100210.22;;;21.44;91.65
4346;BME280;2186;49.866;7.986;2022-07-23T04:03:54;100216.63;;;21.67;91.15
4346;BME280;2186;49.866;7.986;2022-07-23T04:06:21;100226.59;;;21.78;90.99
4346;BME280;2186;49.866;7.986;2022-07-23T04:08:47;100247.38;;;22.01;89.21
4346;BME280;2186;49.866;7.986;2022-07-23T04:11:14;100242.22;;;21.50;90.94
4346;BME280;2186;49.866;7.986;2022-07-23T04:13:40;100233.59;;;21.93;89.74
4346;BME280;2186;49.866;7.986;2022-07-23T04:16:07;100231.16;;;21.77;90.27
4346;BME280;2186;49.866;7.986;2022-07-23T04:18:34;100232.56;;;22.07;88.89
4346;BME280;2186;49.866;7.986;2022-07-23T04:21:00;100248.56;;;21.62;90.39
4346;BME280;2186;49.866;7.986;2022-07-23T04:23:26;100247.28;;;21.79;89.61
4346;BME280;2186;49.866;7.986;2022-07-23T04:25:53;100258.47;;;21.74;89.51
4346;BME280;2186;49.866;7.986;2022-07-23T04:28:19;100258.00;;;21.80;90.28
4346;BME280;2186;49.866;7.986;2022-07-23T04:30:46;100257.25;;;21.78;89.30
4346;BME280;2186;49.866;7.986;2022-07-23T04:33:12;100263.81;;;21.63;90.02
4346;BME280;2186;49.866;7.986;2022-07-23T04:35:39;100263.44;;;21.80;89.06
4346;BME280;2186;49.866;7.986;2022-07-23T04:38:05;100264.28;;;21.81;88.82
4346;BME280;2186;49.866;7.986;2022-07-23T04:40:34;100251.63;;;22.16;86.50
4346;BME280;2186;49.866;7.986;2022-07-23T04:43:00;100247.81;;;21.84;88.53
4346;BME280;2186;49.866;7.986;2022-07-23T04:45:27;100261.78;;;21.78;88.42
4346;BME280;2186;49.866;7.986;2022-07-23T04:47:55;100257.72;;;21.72;89.31
4346;BME280;2186;49.866;7.986;2022-07-23T04:50:23;100262.66;;;21.78;89.40
4346;BME280;2186;49.866;7.986;2022-07-23T04:52:51;100267.50;;;21.86;88.49
4346;BME280;2186;49.866;7.986;2022-07-23T04:55:17;100265.72;;;21.74;89.95
4346;BME280;2186;49.866;7.986;2022-07-23T04:57:44;100275.50;;;21.87;89.92
4346;BME280;2186;49.866;7.986;2022-07-23T05:00:11;100276.53;;;21.74;90.43
4346;BME280;2186;49.866;7.986;2022-07-23T05:02:37;100272.91;;;21.86;89.13
4346;BME280;2186;49.866;7.986;2022-07-23T05:05:04;100265.16;;;21.81;88.85
4346;BME280;2186;49.866;7.986;2022-07-23T05:07:31;100267.44;;;21.99;87.59
4346;BME280;2186;49.866;7.986;2022-07-23T05:09:57;100274.50;;;21.65;89.66
4346;BME280;2186;49.866;7.986;2022-07-23T05:12:23;100276.34;;;21.64;90.14
4346;BME280;2186;49.866;7.986;2022-07-23T05:14:50;100275.13;;;21.81;89.72
4346;BME280;2186;49.866;7.986;2022-07-23T05:17:17;100276.66;;;21.96;88.46
4346;BME280;2186;49.866;7.986;2022-07-23T05:19:44;100281.22;;;21.72;89.65
4346;BME280;2186;49.866;7.986;2022-07-23T05:22:10;100278.56;;;21.59;89.98
4346;BME280;2186;49.866;7.986;2022-07-23T05:24:37;100293.88;;;21.71;90.14
4346;BME280;2186;49.866;7.986;2022-07-23T05:27:03;100295.22;;;21.66;90.44
4346;BME280;2186;49.866;7.986;2022-07-23T05:29:30;100301.94;;;21.84;90.10
4346;BME280;2186;49.866;7.986;2022-07-23T05:31:56;100294.31;;;21.89;89.73
4346;BME280;2186;49.866;7.986;2022-07-23T05:34:23;100305.16;;;22.37;88.32
4346;BME280;2186;49.866;7.986;2022-07-23T05:36:49;100302.75;;;22.67;86.14
4346;BME280;2186;49.866;7.986;2022-07-23T05:39:16;100310.59;;;22.59;84.93
4346;BME280;2186;49.866;7.986;2022-07-23T05:41:42;100312.13;;;22.28;86.60
4346;BME280;2186;49.866;7.986;2022-07-23T05:44:09;100316.56;;;22.75;84.68
4346;BME280;2186;49.866;7.986;2022-07-23T05:46:36;100306.03;;;23.06;83.41
4346;BME280;2186;49.866;7.986;2022-07-23T05:49:02;100305.50;;;23.01;82.36
4346;BME280;2186;49.866;7.986;2022-07-23T05:51:30;100311.16;;;22.87;82.52
4346;BME280;2186;49.866;7.986;2022-07-23T05:53:56;100304.28;;;23.27;80.59
4346;BME280;2186;49.866;7.986;2022-07-23T05:56:22;100305.25;;;23.49;80.31
4346;BME280;2186;49.866;7.986;2022-07-23T05:58:49;100309.47;;;23.96;78.76
4346;BME280;2186;49.866;7.986;2022-07-23T06:01:15;100312.41;;;24.04;77.79
4346;BME280;2186;49.866;7.986;2022-07-23T06:03:42;100298.75;;;23.83;78.56
4346;BME280;2186;49.866;7.986;2022-07-23T06:06:09;100295.72;;;24.09;77.29
4346;BME280;2186;49.866;7.986;2022-07-23T06:08:35;100296.56;;;24.62;75.66
4346;BME280;2186;49.866;7.986;2022-07-23T06:11:02;100293.31;;;24.27;75.53
4346;BME280;2186;49.866;7.986;2022-07-23T06:13:28;100293.91;;;24.51;75.33
4346;BME280;2186;49.866;7.986;2022-07-23T06:15:55;100286.69;;;24.08;77.18
4346;BME280;2186;49.866;7.986;2022-07-23T06:18:21;100291.81;;;24.02;77.36
4346;BME280;2186;49.866;7.986;2022-07-23T06:20:48;100296.59;;;24.41;75.60
4346;BME280;2186;49.866;7.986;2022-07-23T06:23:17;100303.25;;;24.05;77.33
4346;BME280;2186;49.866;7.986;2022-07-23T06:25:43;100309.22;;;24.52;75.85
4346;BME280;2186;49.866;7.986;2022-07-23T06:28:10;100314.72;;;24.62;75.79
4346;BME280;2186;49.866;7.986;2022-07-23T06:30:36;100316.72;;;24.39;76.64
4346;BME280;2186;49.866;7.986;2022-07-23T06:33:04;100321.06;;;24.93;74.63
4346;BME280;2186;49.866;7.986;2022-07-23T06:35:30;100314.75;;;24.92;74.11
4346;BME280;2186;49.866;7.986;2022-07-23T06:37:57;100314.84;;;25.02;74.14
4346;BME280;2186;49.866;7.986;2022-07-23T06:40:23;100309.03;;;24.65;75.32
4346;BME280;2186;49.866;7.986;2022-07-23T06:42:50;100310.53;;;24.99;74.49
4346;BME280;2186;49.866;7.986;2022-07-23T06:45:17;100326.72;;;25.31;72.97
4346;BME280;2186;49.866;7.986;2022-07-23T06:47:43;100326.72;;;24.80;75.22
4346;BME280;2186;49.866;7.986;2022-07-23T06:50:10;100320.84;;;24.75;75.78
4346;BME280;2186;49.866;7.986;2022-07-23T06:52:36;100320.63;;;24.88;74.78
4346;BME280;2186;49.866;7.986;2022-07-23T06:55:08;100339.06;;;24.63;75.44
4346;BME280;2186;49.866;7.986;2022-07-23T06:57:34;100339.91;;;25.26;73.99
4346;BME280;2186;49.866;7.986;2022-07-23T07:00:01;100349.13;;;25.45;73.16
4346;BME280;2186;49.866;7.986;2022-07-23T07:02:28;100347.91;;;25.28;73.37
4346;BME280;2186;49.866;7.986;2022-07-23T07:04:54;100348.50;;;25.31;73.44
4346;BME280;2186;49.866;7.986;2022-07-23T07:07:30;100348.22;;;25.34;72.63
4346;BME280;2186;49.866;7.986;2022-07-23T07:09:56;100346.19;;;25.67;72.08
4346;BME280;2186;49.866;7.986;2022-07-23T07:12:23;100342.00;;;25.53;72.05
4346;BME280;2186;49.866;7.986;2022-07-23T07:14:49;100346.16;;;25.57;72.77
4346;BME280;2186;49.866;7.986;2022-07-23T07:17:16;100347.72;;;25.50;72.28
4346;BME280;2186;49.866;7.986;2022-07-23T07:19:42;100347.28;;;25.85;71.05
4346;BME280;2186;49.866;7.986;2022-07-23T07:22:09;100345.25;;;25.78;71.12
4346;BME280;2186;49.866;7.986;2022-07-23T07:24:35;100342.00;;;25.63;71.64
4346;BME280;2186;49.866;7.986;2022-07-23T07:27:04;100346.59;;;25.62;71.58
4346;BME280;2186;49.866;7.986;2022-07-23T07:29:31;100354.97;;;25.71;71.22
4346;BME280;2186;49.866;7.986;2022-07-23T07:31:57;100367.06;;;25.78;72.11
4346;BME280;2186;49.866;7.986;2022-07-23T07:34:24;100368.97;;;26.06;69.79
4346;BME280;2186;49.866;7.986;2022-07-23T07:36:50;100364.53;;;26.05;69.53
4346;BME280;2186;49.866;7.986;2022-07-23T07:39:17;100374.91;;;26.50;68.55
4346;BME280;2186;49.866;7.986;2022-07-23T07:41:43;100376.75;;;26.40;68.59
4346;BME280;2186;49.866;7.986;2022-07-23T07:44:10;100378.34;;;25.73;70.02
4346;BME280;2186;49.866;7.986;2022-07-23T07:46:36;100380.59;;;26.08;70.20
4346;BME280;2186;49.866;7.986;2022-07-23T07:49:03;100376.28;;;26.06;67.90
4346;BME280;2186;49.866;7.986;2022-07-23T07:51:31;100383.47;;;26.94;65.34
4346;BME280;2186;49.866;7.986;2022-07-23T07:53:59;100371.63;;;25.77;69.31
4346;BME280;2186;49.866;7.986;2022-07-23T07:56:27;100380.94;;;26.63;66.83
4346;BME280;2186;49.866;7.986;2022-07-23T07:58:53;100384.59;;;26.14;68.39
4346;BME280;2186;49.866;7.986;2022-07-23T08:01:20;100386.50;;;26.91;66.45
4346;BME280;2186;49.866;7.986;2022-07-23T08:03:47;100391.13;;;26.61;66.54
4346;BME280;2186;49.866;7.986;2022-07-23T08:06:13;100394.56;;;27.02;64.82
4346;BME280;2186;49.866;7.986;2022-07-23T08:08:40;100399.41;;;27.18;65.10
4346;BME280;2186;49.866;7.986;2022-07-23T08:11:06;100392.97;;;26.32;66.64
4346;BME280;2186;49.866;7.986;2022-07-23T08:13:33;100393.28;;;25.88;68.46
4346;BME280;2186;49.866;7.986;2022-07-23T08:15:59;100393.06;;;26.30;67.64
4346;BME280;2186;49.866;7.986;2022-07-23T08:18:26;100390.34;;;26.98;65.29
4346;BME280;2186;49.866;7.986;2022-07-23T08:20:53;100394.72;;;26.62;66.34
4346;BME280;2186;49.866;7.986;2022-07-23T08:23:19;100387.38;;;26.72;66.03
4346;BME280;2186;49.866;7.986;2022-07-23T08:25:46;100390.56;;;26.48;66.61
4346;BME280;2186;49.866;7.986;2022-07-23T08:28:14;100388.41;;;26.51;66.42
4346;BME280;2186;49.866;7.986;2022-07-23T08:30:42;100391.97;;;26.42;65.73
4346;BME280;2186;49.866;7.986;2022-07-23T08:33:14;100394.69;;;26.91;64.47
4346;BME280;2186;49.866;7.986;2022-07-23T08:36:00;100388.31;;;27.19;63.50
4346;BME280;2186;49.866;7.986;2022-07-23T08:38:30;100398.59;;;26.59;65.30
4346;BME280;2186;49.866;7.986;2022-07-23T08:40:56;100396.13;;;26.75;65.31
4346;BME280;2186;49.866;7.986;2022-07-23T08:43:29;100398.28;;;27.01;63.80
4346;BME280;2186;49.866;7.986;2022-07-23T08:45:58;100389.31;;;26.99;62.75
4346;BME280;2186;49.866;7.986;2022-07-23T08:48:29;100395.56;;;27.01;63.57
4346;BME280;2186;49.866;7.986;2022-07-23T08:50:58;100396.50;;;27.00;63.16
4346;BME280;2186;49.866;7.986;2022-07-23T08:53:28;100393.25;;;26.86;63.43
4346;BME280;2186;49.866;7.986;2022-07-23T08:56:00;100400.88;;;26.64;63.88
4346;BME280;2186;49.866;7.986;2022-07-23T08:58:28;100398.25;;;27.10;61.69
4346;BME280;2186;49.866;7.986;2022-07-23T09:00:56;100389.22;;;27.00;62.14
4346;BME280;2186;49.866;7.986;2022-07-23T09:03:28;100391.94;;;26.91;62.20
4346;BME280;2186;49.866;7.986;2022-07-23T09:05:57;100389.22;;;26.81;62.37
4346;BME280;2186;49.866;7.986;2022-07-23T09:08:43;100399.28;;;26.42;63.39
4346;BME280;2186;49.866;7.986;2022-07-23T09:11:13;100397.72;;;27.44;61.01
4346;BME280;2186;49.866;7.986;2022-07-23T09:16:16;100400.66;;;27.23;59.59
4346;BME280;2186;49.866;7.986;2022-07-23T09:18:52;100395.81;;;27.17;58.49
4346;BME280;2186;49.866;7.986;2022-07-23T09:21:25;100395.38;;;27.12;58.71
4346;BME280;2186;49.866;7.986;2022-07-23T09:26:33;100391.41;;;27.43;58.64
4346;BME280;2186;49.866;7.986;2022-07-23T09:29:12;100389.97;;;28.04;56.71
4346;BME280;2186;49.866;7.986;2022-07-23T09:34:28;100388.03;;;28.14;55.67
4346;BME280;2186;49.866;7.986;2022-07-23T09:37:18;100391.94;;;28.12;55.52
4346;BME280;2186;49.866;7.986;2022-07-23T09:39:44;100396.78;;;27.72;55.53
4346;BME280;2186;49.866;7.986;2022-07-23T09:44:49;100391.47;;;27.71;56.04
4346;BME280;2186;49.866;7.986;2022-07-23T09:47:16;100384.84;;;28.37;52.20
4346;BME280;2186;49.866;7.986;2022-07-23T09:50:07;100384.41;;;28.59;52.82
4346;BME280;2186;49.866;7.986;2022-07-23T09:52:47;100386.34;;;28.31;53.21
4346;BME280;2186;49.866;7.986;2022-07-23T09:55:15;100396.66;;;27.92;53.52
4346;BME280;2186;49.866;7.986;2022-07-23T09:57:43;100387.91;;;28.69;51.23
4346;BME280;2186;49.866;7.986;2022-07-23T10:00:16;100388.94;;;29.12;51.74
4346;BME280;2186;49.866;7.986;2022-07-23T10:02:45;100390.31;;;28.37;52.15
4346;BME280;2186;49.866;7.986;2022-07-23T10:05:12;100392.84;;;28.66;51.73
4346;BME280;2186;49.866;7.986;2022-07-23T10:07:40;100393.00;;;28.28;50.79
4346;BME280;2186;49.866;7.986;2022-07-23T10:10:09;100396.72;;;29.25;48.30
4346;BME280;2186;49.866;7.986;2022-07-23T10:12:36;100393.72;;;28.66;48.27
4346;BME280;2186;49.866;7.986;2022-07-23T10:15:06;100398.78;;;28.79;46.86
4346;BME280;2186;49.866;7.986;2022-07-23T10:17:34;100396.44;;;28.66;46.39
4346;BME280;2186;49.866;7.986;2022-07-23T10:20:01;100394.25;;;28.70;48.75
4346;BME280;2186;49.866;7.986;2022-07-23T10:22:35;100395.22;;;29.04;47.01
4346;BME280;2186;49.866;7.986;2022-07-23T10:33:24;100384.75;;;29.00;48.20
4346;BME280;2186;49.866;7.986;2022-07-23T10:38:51;100381.75;;;27.86;50.67
4346;BME280;2186;49.866;7.986;2022-07-23T10:41:39;100388.72;;;28.16;49.47
4346;BME280;2186;49.866;7.986;2022-07-23T10:44:11;100391.66;;;28.32;50.15
4346;BME280;2186;49.866;7.986;2022-07-23T10:47:02;100387.44;;;28.74;48.20
4346;BME280;2186;49.866;7.986;2022-07-23T10:49:35;100386.81;;;28.80;47.24
4346;BME280;2186;49.866;7.986;2022-07-23T10:57:13;100377.81;;;28.70;46.97
4346;BME280;2186;49.866;7.986;2022-07-23T11:02:34;100373.19;;;29.74;45.47
4346;BME280;2186;49.866;7.986;2022-07-23T11:05:04;100375.13;;;30.40;43.80
4346;BME280;2186;49.866;7.986;2022-07-23T11:07:31;100379.25;;;30.60;43.46
4346;BME280;2186;49.866;7.986;2022-07-23T11:09:58;100374.13;;;30.65;43.09
4346;BME280;2186;49.866;7.986;2022-07-23T11:15:04;100379.25;;;29.86;43.44
4346;BME280;2186;49.866;7.986;2022-07-23T11:17:33;100372.75;;;30.45;43.12
4346;BME280;2186;49.866;7.986;2022-07-23T11:27:39;100363.81;;;30.51;43.39
4346;BME280;2186;49.866;7.986;2022-07-23T11:30:08;100358.50;;;30.90;42.63
4346;BME280;2186;49.866;7.986;2022-07-23T11:32:38;100362.28;;;30.81;42.33
4346;BME280;2186;49.866;7.986;2022-07-23T11:35:26;100368.66;;;30.74;42.40
4346;BME280;2186;49.866;7.986;2022-07-23T11:38:03;100357.41;;;30.10;43.57
4346;BME280;2186;49.866;7.986;2022-07-23T11:40:30;100355.19;;;30.05;43.44
4346;BME280;2186;49.866;7.986;2022-07-23T11:43:05;100347.03;;;29.79;43.35
4346;BME280;2186;49.866;7.986;2022-07-23T11:45:38;100351.19;;;30.00;43.32
4346;BME280;2186;49.866;7.986;2022-07-23T11:48:07;100343.63;;;29.94;43.48
4346;BME280;2186;49.866;7.986;2022-07-23T11:50:34;100348.63;;;29.98;43.26
4346;BME280;2186;49.866;7.986;2022-07-23T11:53:02;100356.44;;;30.35;42.16
4346;BME280;2186;49.866;7.986;2022-07-23T11:55:29;100359.34;;;30.42;42.13
4346;BME280;2186;49.866;7.986;2022-07-23T11:57:56;100355.38;;;30.20;42.35
4346;BME280;2186;49.866;7.986;2022-07-23T12:00:28;100355.56;;;30.27;41.56
4346;BME280;2186;49.866;7.986;2022-07-23T12:03:02;100344.06;;;29.65;43.33
4346;BME280;2186;49.866;7.986;2022-07-23T12:05:32;100350.44;;;29.39;44.04
4346;BME280;2186;49.866;7.986;2022-07-23T12:08:00;100345.28;;;29.36;44.04
4346;BME280;2186;49.866;7.986;2022-07-23T12:10:40;100345.19;;;29.88;44.45
4346;BME280;2186;49.866;7.986;2022-07-23T12:13:12;100342.44;;;29.96;43.27
4346;BME280;2186;49.866;7.986;2022-07-23T12:15:42;100338.41;;;30.25;43.16
4346;BME280;2186;49.866;7.986;2022-07-23T12:18:12;100341.00;;;30.91;41.31
4346;BME280;2186;49.866;7.986;2022-07-23T12:20:41;100346.16;;;30.70;40.82
4346;BME280;2186;49.866;7.986;2022-07-23T12:23:10;100335.13;;;30.13;41.46
4346;BME280;2186;49.866;7.986;2022-07-23T12:25:39;100333.84;;;29.83;41.96
4346;BME280;2186;49.866;7.986;2022-07-23T12:28:14;100330.63;;;29.96;42.70
4346;BME280;2186;49.866;7.986;2022-07-23T12:30:44;100334.69;;;29.75;42.98
4346;BME280;2186;49.866;7.986;2022-07-23T12:33:13;100329.94;;;29.94;42.13
4346;BME280;2186;49.866;7.986;2022-07-23T12:35:44;100331.91;;;30.18;41.12
4346;BME280;2186;49.866;7.986;2022-07-23T12:38:16;100333.97;;;30.40;40.81
4346;BME280;2186;49.866;7.986;2022-07-23T12:40:51;100331.59;;;29.78;42.30
4346;BME280;2186;49.866;7.986;2022-07-23T12:43:27;100331.75;;;30.35;41.52
4346;BME280;2186;49.866;7.986;2022-07-23T12:46:09;100341.13;;;30.08;41.52
4346;BME280;2186;49.866;7.986;2022-07-23T12:48:40;100336.34;;;30.19;41.35
4346;BME280;2186;49.866;7.986;2022-07-23T12:51:30;100338.44;;;30.82;40.09
4346;BME280;2186;49.866;7.986;2022-07-23T12:54:05;100336.63;;;29.99;41.36
4346;BME280;2186;49.866;7.986;2022-07-23T12:56:34;100333.88;;;29.91;41.61
4346;BME280;2186;49.866;7.986;2022-07-23T12:59:10;100338.84;;;29.96;42.14
4346;BME280;2186;49.866;7.986;2022-07-23T13:01:57;100336.56;;;29.75;42.15
4346;BME280;2186;49.866;7.986;2022-07-23T13:04:28;100341.06;;;29.92;42.08
4346;BME280;2186;49.866;7.986;2022-07-23T13:06:57;100340.00;;;29.43;42.56
4346;BME280;2186;49.866;7.986;2022-07-23T13:09:30;100343.88;;;30.08;42.92
4346;BME280;2186;49.866;7.986;2022-07-23T13:12:01;100346.81;;;30.23;42.26
4346;BME280;2186;49.866;7.986;2022-07-23T13:14:28;100346.03;;;29.89;42.66
4346;BME280;2186;49.866;7.986;2022-07-23T13:16:55;100348.03;;;30.45;42.00
4346;BME280;2186;49.866;7.986;2022-07-23T13:19:24;100346.88;;;30.64;41.42
4346;BME280;2186;49.866;7.986;2022-07-23T13:21:53;100353.72;;;30.76;40.74
4346;BME280;2186;49.866;7.986;2022-07-23T13:24:20;100346.50;;;30.51;41.49
4346;BME280;2186;49.866;7.986;2022-07-23T13:26:47;100349.44;;;30.74;41.30
4346;BME280;2186;49.866;7.986;2022-07-23T13:29:16;100349.56;;;30.56;41.40
4346;BME280;2186;49.866;7.986;2022-07-23T13:31:45;100348.88;;;30.54;41.47
4346;BME280;2186;49.866;7.986;2022-07-23T13:34:11;100337.69;;;30.15;41.90
4346;BME280;2186;49.866;7.986;2022-07-23T13:36:38;100344.44;;;30.53;41.62
4346;BME280;2186;49.866;7.986;2022-07-23T13:39:05;100332.25;;;30.47;41.47
4346;BME280;2186;49.866;7.986;2022-07-23T13:41:36;100345.09;;;31.04;40.08
4346;BME280;2186;49.866;7.986;2022-07-23T13:44:03;100339.13;;;30.43;41.10
4346;BME280;2186;49.866;7.986;2022-07-23T13:46:29;100333.41;;;31.18;40.70
4346;BME280;2186;49.866;7.986;2022-07-23T13:48:56;100331.94;;;30.66;41.09
4346;BME280;2186;49.866;7.986;2022-07-23T13:51:23;100332.78;;;30.91;41.20
4346;BME280;2186;49.866;7.986;2022-07-23T13:53:51;100333.13;;;30.88;41.17
4346;BME280;2186;49.866;7.986;2022-07-23T13:56:18;100337.72;;;31.20;40.84